Airfield :
LOGIN :

Register | Disclaimer

   EN    FR    IT 

 










Legend :    VFR   Marginal VFR   IFR   Intensive IFR   Very Intensive IFR
Visi :
Ceiling :
>= 8 km
>= 3000ft
5 to 8 km
1000 to 3000 ft
1500m to 5 km
500 to 1000 ft
800 to 1500m
200 to 500 ft
< 800m
< 200 ft
Symbols :   Thunderstorms  Fog  Heavy snow  Heavy precipitations  Wind > 20 kt
SIGMETs :     Misc.  Thunderstorms  Icing  Turbulence  Mountain Waves  Volcanic Ashes







- Airport Elevation : 26 ft
- IATA code : GLA
- Download approach charts


EGPF - Glasgow

CURRENT METAR :
  • 252050Z AUTO 25004KT 9999 NCD 05/00 Q1030

EXPIRED METARs :
  • 252020Z AUTO 25006KT 9999 NCD 06/00 Q1030
  • 251950Z AUTO 24006KT 9999 NCD 05/01 Q1030
  • 251920Z AUTO 24006KT 9999 NCD 07/01 Q1030
  • 251850Z AUTO 25004KT 9999 NCD 09/02 Q1029
  • 251820Z AUTO 26005KT 9999 NCD 11/02 Q1029

TAF AMD TAF EGPF
Valid from the 25 at 20:00 until the 26 at 18:00 UTC


252054Z 2520/2618 VRB03KT CAVOK
TEMPO 2520/2608 7000
ATIS : +44 141 887 7449
No reported NOTAMs for that airfield.



MET'MAP, your aeronautical weather chart ! - Copyright ORBIFLY December 2007 - Disclaimer

ORBIFLY MET'MAP TEAM :

Programming & Development : Alexandra Zaïnal
Concept & Development : Baudouin d'Aumeries
Co-Development & Prog : Marc-Olivier Méhu
Technical & hardware support : Manuel Goepfert

Contact : metmap@orbifly.com




SOURCES & CREDITS :

   NOAA